Reykjavik, Iceland
Current Conditions -  °F | °C
As of 7:00 AM on Tuesday 21 Oct 2014 (Local Time) from BIRK Reporting Station
Light Snow Light Snow  
Wind Chill: 20°   Ceiling: 2900
Heat Index: 28°   Visibility: 6mi
Dew Point: 27°   Wind: 8mph
Humidity: 93%   Direction: 110°ESE
Pressure: 29.5"   Gusts: NA
Location:  64.14°N, 21.92°W
Report Text: BIRK 210700Z 11007KT 9999 -SN FEW016 BKN029 OVC041 M02/M03 Q0999
Loading
Personal Weather Stations






























Interactive Weather Map New forecast layout! Learn more

10-Day Weather Forecast

Advertisements
Track Severe Weather on mobile